Guadalajara, México

5:30 PM CST en Enero 23, 2018 (GMT -0600)
Globalmet - Rancho Ahualulco | | Change Station

Alt 4326 ft 20.70 °N, 103.94 °W | Updated 42 seconds ago

Nublado
Nublado
77.3 ° F
Sensación térmica 78 ° F
N
4.0
Viento Variable Viento desde SO
Gusts 7.0 mph

Hoy
Alta -- | Baja -- ° F
--% Posibilidad de precipitaciones
Ayer
Alta -- | Baja -- ° F
Precip. -- pul
Presión 30.04 pul
Visibilidad 10.0 Millas
Nubes Muy nublado 3000 ft
Muy nublado 8000 ft
Índice de calor 78 ° F
Punto de rocío 40 ° F
Humedad 26%
Precipitaciones 0.00 pul
Espesor de la nieve No disponible.
7:33 AM 6:40 PM
Creciente, 40% visible
METAR MMGL 232244Z 25012KT 10SM BKN030 BKN080 24/02 A3004 RMK 8/560 TCU N-S
Presión 30.04 pul
Visibilidad 10.0 Millas
Nubes Muy nublado 3000 ft
Muy nublado 8000 ft
Índice de calor 78 ° F
Punto de rocío 40 ° F
Humedad 26%
Precipitaciones 0.00 pul
Espesor de la nieve No disponible.
7:33 AM 6:40 PM
Creciente, 40% visible
METAR MMGL 232244Z 25012KT 10SM BKN030 BKN080 24/02 A3004 RMK 8/560 TCU N-S

Get Severe Weather Alerts

Thanks for signing up!

Be on the lookout for a verification email in your inbox.

You'll start receiving the daily forecast at 6 AM.

×

10-Day Weather Forecast

No radar image for this location.
×

Almanac

Astronomía

Jan. 23, 2018 Salida Puesta
Hora real
Crepúsculo civil
Crepúsculo náutico
Crepúsculo astronómico
Luna
Horas de luz
Horas de luz
Tomorrow will be .
, % of the Moon is Illuminated

Extremos de hoy

Máximos del país Bajas del país

Community

WunderPhotos

Category 6

Welcome to Category 6. This is the collective home for Weather Underground's featured writeups by Dr. Jeff Masters (right), Bob Henson (left), Chris Burt, and other regular contributors.

Nearby

Calidad del aire

  Calidad del aire Índice AQ Contaminante
Not available.

Grosos de nieve

Estación Profundido Altura

Actividad de terremotos

Ciudad Distance Mag. Tiempo y dato
Magnitud mínima muestra es 2,5.

Temperaturas de aguas costeras

Lugar Temperatura

Stations

Estaciones meteorológicas cercanas

Ubicación de la estación Temp. Vientos helados Punto de rocío Humedad Viento Precip. Alt Actualizado Tipo